Ship Status Report: callsign OS8154

sailwx.info

Track history (hours):
 
Tides and Currents Weather Stations Pressure Air Temp Water Temp Dewpoint Dewpoint Depression Visibility Wind Speed Wind Dir Waves Ship Positions

Callsign OS8154 (name unknown)

Last reported at 2014-Aug-21 18:00 UTC. Time now 2014-Aug-21 20:06 UTC.
Position N 71°48' W 096°48'.

Barometer 1021.0 mb
Air temperature 1.5 ° C

Date/timePositionNaut miles runAvg speedWind from/ knotsBaromVisibWave heightAir tempDewpointWater temp
2014-Aug-21 18:00N 71°48' W 096°48'0 0.0 1021.0 1.5
2014-Aug-21 17:00N 71°48' W 096°48'2 0.9 1021.0 1.5
2014-Aug-21 15:00N 71°48' W 096°54'0 0.0 1020.8 0.5
2014-Aug-21 13:00N 71°48' W 096°54'0 0.0 1021.2 -0.0
2014-Aug-21 12:00N 71°48' W 096°54'0 0.0 1020.9 0.3
2014-Aug-21 11:00N 71°48' W 096°54'0 0.0 1020.5 0.3
2014-Aug-21 10:00N 71°48' W 096°54'0 0.0 1020.3 -0.0
2014-Aug-21 08:00N 71°48' W 096°54'0 0.0 1019.5 -0.0
2014-Aug-21 07:00N 71°48' W 096°54'15 3.8 1019.3 -0.0
2014-Aug-21 03:00N 71°36' W 097°24'8 7.6 1018.2 0.5
2014-Aug-21 02:00N 71°36' W 097°48'1312.6 1017.7 1.0
2014-Aug-21 01:00N 71°24' W 098°00'7 7.1 1017.5 0.5
2014-Aug-21 00:00N 71°18' W 098°12'7 7.1 1017.2 0.3
2014-Aug-20 23:00N 71°12' W 098°00'0 0.0 1016.8 -0.3
2014-Aug-20 22:00N 71°12' W 098°00'2 1.9 1016.1 0.3
2014-Aug-20 21:00N 71°12' W 097°54'0 0.0 1015.3 0.3
2014-Aug-20 20:00N 71°12' W 097°54'0 0.0 1014.5 0.3
2014-Aug-20 19:00N 71°12' W 097°54'0 0.0 1013.7 0.3
2014-Aug-20 18:00N 71°12' W 097°54'2 1.9 1013.0 0.3
2014-Aug-20 17:00N 71°12' W 098°00'0 0.0 1012.2 -0.0
2014-Aug-20 16:00N 71°12' W 098°00'0 0.0 1011.2 -0.0
2014-Aug-20 15:00N 71°12' W 098°00'6 3.2 1010.4 -0.3
2014-Aug-20 13:00N 71°18' W 098°06'0 0.0 1009.1 -0.5
2014-Aug-20 12:00N 71°18' W 098°06'0 0.0 1008.4 -0.3
2014-Aug-20 11:00N 71°18' W 098°06'0 0.0 1007.6 -0.3
2014-Aug-20 10:00N 71°18' W 098°06'0 0.0 1006.9 -0.3
2014-Aug-20 09:00N 71°18' W 098°06'0 0.0 1006.2 -0.3
2014-Aug-20 08:00N 71°18' W 098°06'0 0.0 1005.8 -0.0
2014-Aug-20 07:00N 71°18' W 098°06'2 1.0 1005.4 -0.0
2014-Aug-20 05:00N 71°18' W 098°00'0 0.0 1004.6 0.3
2014-Aug-20 03:00N 71°18' W 098°00'8 4.2 1004.3 0.5
2014-Aug-20 01:00N 71°12' W 097°42'8 7.7 1003.7 1.8
2014-Aug-20 00:00N 71°12' W 097°18'0 0.0 1003.5 0.5
2014-Aug-19 23:00N 71°12' W 097°18'0 0.0 1003.2 1.5
2014-Aug-19 22:00N 71°12' W 097°18'0 0.0 1003.0 1.5
2014-Aug-19 21:00N 71°12' W 097°18'0 0.0 1002.7 1.8
2014-Aug-19 20:00N 71°12' W 097°18'0 0.0 1002.6 1.0
2014-Aug-19 19:00N 71°12' W 097°18'4 3.9 1002.5 0.8
2014-Aug-19 18:00N 71°12' W 097°06'4 3.9 1002.3 1.3
2014-Aug-19 17:00N 71°12' W 096°54'8 3.9 1002.1 1.0
2014-Aug-19 15:00N 71°12' W 096°30'0 0.0 1001.9 1.3
2014-Aug-19 14:00N 71°12' W 096°30'0 0.0 1002.3 1.8
2014-Aug-19 12:00N 71°12' W 096°30'0 0.0 1003.3 1.0
2014-Aug-19 09:00N 71°12' W 096°30'0 0.0 1004.6 -0.5
2014-Aug-19 08:00N 71°12' W 096°30'0 0.0 1005.1 -0.5
2014-Aug-19 07:00N 71°12' W 096°30'12 1.7 1005.7 -0.0
2014-Aug-19 00:00N 71°00' W 096°36'6 6.3 1009.2 1.5
2014-Aug-18 23:00N 70°54' W 096°42'19 9.5 1009.1 1.3
2014-Aug-18 21:00N 70°36' W 096°24'6 6.0 1009.1 4.0
2014-Aug-18 20:00N 70°30' W 096°24'18 9.2 1009.0 3.0
2014-Aug-18 18:00N 70°12' W 096°36'6 6.3 1009.1 1.3
2014-Aug-18 17:00N 70°06' W 096°30'6 6.3 1009.2 1.5
2014-Aug-18 16:00N 70°00' W 096°24'15 7.3 1009.1 3.0
2014-Aug-18 14:00N 69°48' W 096°00'7 7.3 1009.2 2.5
2014-Aug-18 13:00N 69°42' W 095°48'7 7.3 1009.0 1.8
2014-Aug-18 12:00N 69°48' W 095°36'0 0.0 1009.1 3.3
2014-Aug-18 11:00N 69°48' W 095°36'0 0.0 1009.1 1.8
2014-Aug-18 09:00N 69°48' W 095°36'0 0.0 1009.7 1.5
2014-Aug-18 07:00N 69°48' W 095°36'0 0.0 1010.3 1.8
2014-Aug-18 05:00N 69°48' W 095°36'0 0.0 1010.6 1.5
2014-Aug-18 04:00N 69°48' W 095°36'0 0.0 1011.0 2.3
2014-Aug-18 03:00N 69°48' W 095°36'0 0.0 1011.2 2.8
2014-Aug-18 02:00N 69°48' W 095°36'0 0.0 1011.4 3.0
2014-Aug-18 01:00N 69°48' W 095°36'0 0.0 1011.3 3.0
2014-Aug-18 00:00N 69°48' W 095°36'0 0.0 1011.4 3.3
2014-Aug-17 23:00N 69°48' W 095°36'0 0.0 1011.6 3.8
2014-Aug-17 22:00N 69°48' W 095°36'0 0.0 1011.6 4.5
2014-Aug-17 21:00N 69°48' W 095°36'6 3.2 1011.7 5.3
2014-Aug-17 19:00N 69°42' W 095°42'0 0.0 1012.2 2.5
2014-Aug-17 18:00N 69°42' W 095°42'0 0.0 1012.5 2.5
2014-Aug-17 17:00N 69°42' W 095°42'2 1.0 1012.6 2.0
2014-Aug-17 15:00N 69°42' W 095°36'6 6.4 1013.0 1.3
2014-Aug-17 14:00N 69°36' W 095°30'4 2.1 1013.6 0.3
2014-Aug-17 12:00N 69°36' W 095°18'6 6.0 1014.0 -0.3
2014-Aug-17 11:00N 69°30' W 095°18'0 0.0 1014.1 -0.3
2014-Aug-17 10:00N 69°30' W 095°18'0 0.0 1013.9 0.3
2014-Aug-17 09:00N 69°30' W 095°18'0 0.0 1014.2 0.3
2014-Aug-17 08:00N 69°30' W 095°18'0 0.0 1014.5 0.5
2014-Aug-17 07:00N 69°30' W 095°18'0 0.0 1014.8 -0.5
2014-Aug-17 06:00N 69°30' W 095°18'0 0.0 1014.8 -0.5
2014-Aug-17 05:00N 69°30' W 095°18'0 0.0 1015.1 -0.3
2014-Aug-17 02:00N 69°30' W 095°18'0 0.0 1015.2 0.5
2014-Aug-17 01:00N 69°30' W 095°18'0 0.0 1015.2 0.8
2014-Aug-17 00:00N 69°30' W 095°18'0 0.0 1015.0 1.3
2014-Aug-16 23:00N 69°30' W 095°18'0 0.0 1015.2 1.3
2014-Aug-16 22:00N 69°30' W 095°18'0 0.0 1015.1 1.8
2014-Aug-16 21:00N 69°30' W 095°18'0 0.0 1015.0 2.0
2014-Aug-16 20:00N 69°30' W 095°18'0 0.0 1015.0 0.8
2014-Aug-16 18:00N 69°30' W 095°18'0 0.0 1014.9 0.3
2014-Aug-16 17:00N 69°30' W 095°18'0 0.0 1014.8 0.3
2014-Aug-16 15:00N 69°30' W 095°18'0 0.0 1014.7 -0.5
2014-Aug-16 14:00N 69°30' W 095°18'0 0.0 1014.6 -0.5
2014-Aug-16 12:00N 69°30' W 095°18'0 0.0 1014.8 -0.8
2014-Aug-16 11:00N 69°30' W 095°18'0 0.0 1014.6 -1.3
2014-Aug-16 09:00N 69°30' W 095°18'0 0.0 1014.1 -1.5
2014-Aug-16 08:00N 69°30' W 095°18'0 0.0 1014.0 -1.5
2014-Aug-16 07:00N 69°30' W 095°18'0 0.0 1013.8 -1.5
2014-Aug-16 05:00N 69°30' W 095°18'0 0.0 1014.0 -1.0
2014-Aug-16 04:00N 69°30' W 095°18'0 0.0 1013.8 -1.0
2014-Aug-16 03:00N 69°30' W 095°18'0 0.0 1013.7 -1.0
2014-Aug-16 01:00N 69°30' W 095°18'0 0.0 1013.7 -0.0
2014-Aug-16 00:00N 69°30' W 095°18'0 0.0 1013.5 0.8
2014-Aug-15 23:00N 69°30' W 095°18'0 0.0 1013.6 0.8
2014-Aug-15 22:00N 69°30' W 095°18'0 0.0 1013.6 1.0
2014-Aug-15 21:00N 69°30' W 095°18'0 0.0 1013.7 1.0
2014-Aug-15 20:00N 69°30' W 095°18'0 0.0 1013.8 0.5
2014-Aug-15 19:00N 69°30' W 095°18'0 0.0 1014.0 -0.0
2014-Aug-15 18:00N 69°30' W 095°18'0 0.0 1013.9 0.3
2014-Aug-15 17:00N 69°30' W 095°18'0 0.0 1013.6 0.3
2014-Aug-15 15:00N 69°30' W 095°18'0 0.0 1013.5 0.5
2014-Aug-15 14:00N 69°30' W 095°18'0 0.0 1013.5 1.0
2014-Aug-15 13:00N 69°30' W 095°18'0 0.0 1013.4 1.0
2014-Aug-15 12:00N 69°30' W 095°18'0 0.0 1013.3 0.8
2014-Aug-15 11:00N 69°30' W 095°18'0 0.0 1012.9 -0.0
2014-Aug-15 10:00N 69°30' W 095°18'0 0.0 1012.8 -0.5
2014-Aug-15 09:00N 69°30' W 095°18'0 0.0 1012.7 -1.3
2014-Aug-15 08:00N 69°30' W 095°18'0 0.0 1012.6 -1.0
2014-Aug-15 07:00N 69°30' W 095°18'0 0.0 1012.3 -0.8
2014-Aug-15 05:00N 69°30' W 095°18'0 0.0 1011.7 0.3
2014-Aug-15 03:00N 69°30' W 095°18'0 0.0 1011.2 2.0
2014-Aug-15 02:00N 69°30' W 095°18'0 0.0 1011.0 3.5
2014-Aug-15 01:00N 69°30' W 095°18'0 0.0 1010.6 7.5
2014-Aug-15 00:00N 69°30' W 095°18'0 0.0 1010.3 8.0
2014-Aug-14 23:00N 69°30' W 095°18'0 0.0 1010.2 6.5
2014-Aug-14 22:00N 69°30' W 095°18'0 0.0 1009.8 7.3
2014-Aug-14 21:00N 69°30' W 095°18'0 0.0 1009.3 6.0
2014-Aug-14 20:00N 69°30' W 095°18'0 0.0 1008.9 5.5
2014-Aug-14 19:00N 69°30' W 095°18'0 0.0 1008.8 4.5
2014-Aug-14 17:00N 69°30' W 095°18'0 0.0 1008.5 4.3
2014-Aug-14 16:00N 69°30' W 095°18'0 0.0 1008.3 4.0
2014-Aug-14 15:00N 69°30' W 095°18'0 0.0 1008.1 3.3
2014-Aug-14 14:00N 69°30' W 095°18'0 0.0 1008.0 3.0
2014-Aug-14 12:00N 69°30' W 095°18'0 0.0 1008.2 1.0
2014-Aug-14 11:00N 69°30' W 095°18'0 0.0 1008.1 -0.0
2014-Aug-14 10:00N 69°30' W 095°18'0 0.0 1008.3 -0.0
2014-Aug-14 09:00N 69°30' W 095°18'0 0.0 1008.6 -0.3
2014-Aug-14 08:00N 69°30' W 095°18'0 0.0 1008.6 -0.0
2014-Aug-14 07:00N 69°30' W 095°18'0 0.0 1008.6 -0.0
2014-Aug-14 06:00N 69°30' W 095°18'0 0.0 1008.8 -0.0
2014-Aug-14 04:00N 69°30' W 095°18'0 0.0 1009.4 0.8
2014-Aug-14 03:00N 69°30' W 095°18'0 0.0 1009.7 0.8
2014-Aug-14 02:00N 69°30' W 095°18'0 0.0 1009.7 1.0
2014-Aug-14 01:00N 69°30' W 095°18'0 0.0 1009.7 1.5
2014-Aug-14 00:00N 69°30' W 095°18'0 0.0 1009.8 1.5
2014-Aug-13 23:00N 69°30' W 095°18'0 0.0 1010.0 4.3
2014-Aug-13 22:00N 69°30' W 095°18'0 0.0 1010.1 3.5
2014-Aug-13 20:00N 69°30' W 095°18'6 3.0 1010.2 3.3
2014-Aug-13 18:00N 69°36' W 095°18'0 0.0 1010.3 0.5
2014-Aug-13 17:00N 69°36' W 095°18'6 6.0 1010.1 0.8
2014-Aug-13 16:00N 69°30' W 095°18'0 0.0 1010.1 0.5
2014-Aug-13 15:00N 69°30' W 095°18'0 0.0 1010.0 1.5
2014-Aug-13 14:00N 69°30' W 095°18'0 0.0 1009.9 0.5
2014-Aug-13 13:00N 69°30' W 095°18'0 0.0 1010.1 0.8
2014-Aug-13 12:00N 69°30' W 095°18'0 0.0 1009.9 -0.3
2014-Aug-13 10:00N 69°30' W 095°18'0 0.0 1009.8 -0.8
2014-Aug-13 09:00N 69°30' W 095°18'0 0.0 1009.5 -0.8
2014-Aug-13 08:00N 69°30' W 095°18'0 0.0 1009.5 -0.8
2014-Aug-12 19:00N 69°30' W 095°18'0 0.0 1010.2 2.8
2014-Aug-12 18:00N 69°30' W 095°18'0 0.0 1010.4 2.8
2014-Aug-12 17:00N 69°30' W 095°18'0 0.0 1010.6 1.5
2014-Aug-12 16:00N 69°30' W 095°18'0 0.0 1010.7 1.0
2014-Aug-12 15:00N 69°30' W 095°18'0 0.0 1011.0 0.3
2014-Aug-12 14:00N 69°30' W 095°18'0 0.0 1011.2 0.3
2014-Aug-12 13:00N 69°30' W 095°18'0 0.0 1011.3 -1.0
2014-Aug-12 12:00N 69°30' W 095°18'0 0.0 1011.4 -0.8
2014-Aug-12 11:00N 69°30' W 095°18'0 0.0 1011.2 -1.0
2014-Aug-12 10:00N 69°30' W 095°18'0 0.0 1011.0 -1.0
2014-Aug-12 06:00N 69°30' W 095°18'0 0.0 1010.2 -1.3
2014-Aug-12 05:00N 69°30' W 095°18'0 0.0 1009.9 -0.8
2014-Aug-12 03:00N 69°30' W 095°18'0 0.0 1009.2 -0.5
2014-Aug-12 02:00N 69°30' W 095°18'0 0.0 1009.0 -0.3
2014-Aug-12 01:00N 69°30' W 095°18'0 0.0 1008.9 -0.0
2014-Aug-12 00:00N 69°30' W 095°18'0 0.0 1008.8 0.3
2014-Aug-11 23:00N 69°30' W 095°18'0 0.0 1008.5 0.8
2014-Aug-11 22:00N 69°30' W 095°18'0 0.0 1008.4 0.8
2014-Aug-11 21:00N 69°30' W 095°18'0 0.0 1008.3 1.3
2014-Aug-11 20:00N 69°30' W 095°18'0 0.0 1008.4 2.8
2014-Aug-11 19:00N 69°30' W 095°18'0 0.0 1008.4 3.8
2014-Aug-11 18:00N 69°30' W 095°18'   1008.6 2.8
Track history (hours):
 
Tides and Currents Weather Stations Pressure Air Temp Water Temp Dewpoint Dewpoint Depression Visibility Wind Speed Wind Dir Waves Ship Positions

Callsign OS8154 (name unknown)

Last reported at 2014-Aug-21 18:00 UTC. Time now 2014-Aug-21 20:06 UTC.
Position N 71°48' W 096°48'.

Barometer 1021.0 mb
Air temperature 1.5 ° C

Date/timePositionNaut miles runAvg speedWind from/ knotsBaromVisibWave heightAir tempDewpointWater temp
2014-Aug-21 18:00N 71°48' W 096°48'0 0.0 1021.0 1.5
2014-Aug-21 17:00N 71°48' W 096°48'2 0.9 1021.0 1.5
2014-Aug-21 15:00N 71°48' W 096°54'0 0.0 1020.8 0.5
2014-Aug-21 13:00N 71°48' W 096°54'0 0.0 1021.2 -0.0
2014-Aug-21 12:00N 71°48' W 096°54'0 0.0 1020.9 0.3
2014-Aug-21 11:00N 71°48' W 096°54'0 0.0 1020.5 0.3
2014-Aug-21 10:00N 71°48' W 096°54'0 0.0 1020.3 -0.0
2014-Aug-21 08:00N 71°48' W 096°54'0 0.0 1019.5 -0.0
2014-Aug-21 07:00N 71°48' W 096°54'15 3.8 1019.3 -0.0
2014-Aug-21 03:00N 71°36' W 097°24'8 7.6 1018.2 0.5
2014-Aug-21 02:00N 71°36' W 097°48'1312.6 1017.7 1.0
2014-Aug-21 01:00N 71°24' W 098°00'7 7.1 1017.5 0.5
2014-Aug-21 00:00N 71°18' W 098°12'7 7.1 1017.2 0.3
2014-Aug-20 23:00N 71°12' W 098°00'0 0.0 1016.8 -0.3
2014-Aug-20 22:00N 71°12' W 098°00'2 1.9 1016.1 0.3
2014-Aug-20 21:00N 71°12' W 097°54'0 0.0 1015.3 0.3
2014-Aug-20 20:00N 71°12' W 097°54'0 0.0 1014.5 0.3
2014-Aug-20 19:00N 71°12' W 097°54'0 0.0 1013.7 0.3
2014-Aug-20 18:00N 71°12' W 097°54'2 1.9 1013.0 0.3
2014-Aug-20 17:00N 71°12' W 098°00'0 0.0 1012.2 -0.0
2014-Aug-20 16:00N 71°12' W 098°00'0 0.0 1011.2 -0.0
2014-Aug-20 15:00N 71°12' W 098°00'6 3.2 1010.4 -0.3
2014-Aug-20 13:00N 71°18' W 098°06'0 0.0 1009.1 -0.5
2014-Aug-20 12:00N 71°18' W 098°06'0 0.0 1008.4 -0.3
2014-Aug-20 11:00N 71°18' W 098°06'0 0.0 1007.6 -0.3
2014-Aug-20 10:00N 71°18' W 098°06'0 0.0 1006.9 -0.3
2014-Aug-20 09:00N 71°18' W 098°06'0 0.0 1006.2 -0.3
2014-Aug-20 08:00N 71°18' W 098°06'0 0.0 1005.8 -0.0
2014-Aug-20 07:00N 71°18' W 098°06'2 1.0 1005.4 -0.0
2014-Aug-20 05:00N 71°18' W 098°00'0 0.0 1004.6 0.3
2014-Aug-20 03:00N 71°18' W 098°00'8 4.2 1004.3 0.5
2014-Aug-20 01:00N 71°12' W 097°42'8 7.7 1003.7 1.8
2014-Aug-20 00:00N 71°12' W 097°18'0 0.0 1003.5 0.5
2014-Aug-19 23:00N 71°12' W 097°18'0 0.0 1003.2 1.5
2014-Aug-19 22:00N 71°12' W 097°18'0 0.0 1003.0 1.5
2014-Aug-19 21:00N 71°12' W 097°18'0 0.0 1002.7 1.8
2014-Aug-19 20:00N 71°12' W 097°18'0 0.0 1002.6 1.0
2014-Aug-19 19:00N 71°12' W 097°18'4 3.9 1002.5 0.8
2014-Aug-19 18:00N 71°12' W 097°06'4 3.9 1002.3 1.3
2014-Aug-19 17:00N 71°12' W 096°54'8 3.9 1002.1 1.0
2014-Aug-19 15:00N 71°12' W 096°30'0 0.0 1001.9 1.3
2014-Aug-19 14:00N 71°12' W 096°30'0 0.0 1002.3 1.8
2014-Aug-19 12:00N 71°12' W 096°30'0 0.0 1003.3 1.0
2014-Aug-19 09:00N 71°12' W 096°30'0 0.0 1004.6 -0.5
2014-Aug-19 08:00N 71°12' W 096°30'0 0.0 1005.1 -0.5
2014-Aug-19 07:00N 71°12' W 096°30'12 1.7 1005.7 -0.0
2014-Aug-19 00:00N 71°00' W 096°36'6 6.3 1009.2 1.5
2014-Aug-18 23:00N 70°54' W 096°42'19 9.5 1009.1 1.3
2014-Aug-18 21:00N 70°36' W 096°24'6 6.0 1009.1 4.0
2014-Aug-18 20:00N 70°30' W 096°24'18 9.2 1009.0 3.0
2014-Aug-18 18:00N 70°12' W 096°36'6 6.3 1009.1 1.3
2014-Aug-18 17:00N 70°06' W 096°30'6 6.3 1009.2 1.5
2014-Aug-18 16:00N 70°00' W 096°24'15 7.3 1009.1 3.0
2014-Aug-18 14:00N 69°48' W 096°00'7 7.3 1009.2 2.5
2014-Aug-18 13:00N 69°42' W 095°48'7 7.3 1009.0 1.8
2014-Aug-18 12:00N 69°48' W 095°36'0 0.0 1009.1 3.3
2014-Aug-18 11:00N 69°48' W 095°36'0 0.0 1009.1 1.8
2014-Aug-18 09:00N 69°48' W 095°36'0 0.0 1009.7 1.5
2014-Aug-18 07:00N 69°48' W 095°36'0 0.0 1010.3 1.8
2014-Aug-18 05:00N 69°48' W 095°36'0 0.0 1010.6 1.5
2014-Aug-18 04:00N 69°48' W 095°36'0 0.0 1011.0 2.3
2014-Aug-18 03:00N 69°48' W 095°36'0 0.0 1011.2 2.8
2014-Aug-18 02:00N 69°48' W 095°36'0 0.0 1011.4 3.0
2014-Aug-18 01:00N 69°48' W 095°36'0 0.0 1011.3 3.0
2014-Aug-18 00:00N 69°48' W 095°36'0 0.0 1011.4 3.3
2014-Aug-17 23:00N 69°48' W 095°36'0 0.0 1011.6 3.8
2014-Aug-17 22:00N 69°48' W 095°36'0 0.0 1011.6 4.5
2014-Aug-17 21:00N 69°48' W 095°36'6 3.2 1011.7 5.3
2014-Aug-17 19:00N 69°42' W 095°42'0 0.0 1012.2 2.5
2014-Aug-17 18:00N 69°42' W 095°42'0 0.0 1012.5 2.5
2014-Aug-17 17:00N 69°42' W 095°42'2 1.0 1012.6 2.0
2014-Aug-17 15:00N 69°42' W 095°36'6 6.4 1013.0 1.3
2014-Aug-17 14:00N 69°36' W 095°30'4 2.1 1013.6 0.3
2014-Aug-17 12:00N 69°36' W 095°18'6 6.0 1014.0 -0.3
2014-Aug-17 11:00N 69°30' W 095°18'0 0.0 1014.1 -0.3
2014-Aug-17 10:00N 69°30' W 095°18'0 0.0 1013.9 0.3
2014-Aug-17 09:00N 69°30' W 095°18'0 0.0 1014.2 0.3
2014-Aug-17 08:00N 69°30' W 095°18'0 0.0 1014.5 0.5
2014-Aug-17 07:00N 69°30' W 095°18'0 0.0 1014.8 -0.5
2014-Aug-17 06:00N 69°30' W 095°18'0 0.0 1014.8 -0.5
2014-Aug-17 05:00N 69°30' W 095°18'0 0.0 1015.1 -0.3
2014-Aug-17 02:00N 69°30' W 095°18'0 0.0 1015.2 0.5
2014-Aug-17 01:00N 69°30' W 095°18'0 0.0 1015.2 0.8
2014-Aug-17 00:00N 69°30' W 095°18'0 0.0 1015.0 1.3
2014-Aug-16 23:00N 69°30' W 095°18'0 0.0 1015.2 1.3
2014-Aug-16 22:00N 69°30' W 095°18'0 0.0 1015.1 1.8
2014-Aug-16 21:00N 69°30' W 095°18'0 0.0 1015.0 2.0
2014-Aug-16 20:00N 69°30' W 095°18'0 0.0 1015.0 0.8
2014-Aug-16 18:00N 69°30' W 095°18'0 0.0 1014.9 0.3
2014-Aug-16 17:00N 69°30' W 095°18'0 0.0 1014.8 0.3
2014-Aug-16 15:00N 69°30' W 095°18'0 0.0 1014.7 -0.5
2014-Aug-16 14:00N 69°30' W 095°18'0 0.0 1014.6 -0.5
2014-Aug-16 12:00N 69°30' W 095°18'0 0.0 1014.8 -0.8
2014-Aug-16 11:00N 69°30' W 095°18'0 0.0 1014.6 -1.3
2014-Aug-16 09:00N 69°30' W 095°18'0 0.0 1014.1 -1.5
2014-Aug-16 08:00N 69°30' W 095°18'0 0.0 1014.0 -1.5
2014-Aug-16 07:00N 69°30' W 095°18'0 0.0 1013.8 -1.5
2014-Aug-16 05:00N 69°30' W 095°18'0 0.0 1014.0 -1.0
2014-Aug-16 04:00N 69°30' W 095°18'0 0.0 1013.8 -1.0
2014-Aug-16 03:00N 69°30' W 095°18'0 0.0 1013.7 -1.0
2014-Aug-16 01:00N 69°30' W 095°18'0 0.0 1013.7 -0.0
2014-Aug-16 00:00N 69°30' W 095°18'0 0.0 1013.5 0.8
2014-Aug-15 23:00N 69°30' W 095°18'0 0.0 1013.6 0.8
2014-Aug-15 22:00N 69°30' W 095°18'0 0.0 1013.6 1.0
2014-Aug-15 21:00N 69°30' W 095°18'0 0.0 1013.7 1.0
2014-Aug-15 20:00N 69°30' W 095°18'0 0.0 1013.8 0.5
2014-Aug-15 19:00N 69°30' W 095°18'0 0.0 1014.0 -0.0
2014-Aug-15 18:00N 69°30' W 095°18'0 0.0 1013.9 0.3
2014-Aug-15 17:00N 69°30' W 095°18'0 0.0 1013.6 0.3
2014-Aug-15 15:00N 69°30' W 095°18'0 0.0 1013.5 0.5
2014-Aug-15 14:00N 69°30' W 095°18'0 0.0 1013.5 1.0
2014-Aug-15 13:00N 69°30' W 095°18'0 0.0 1013.4 1.0
2014-Aug-15 12:00N 69°30' W 095°18'0 0.0 1013.3 0.8
2014-Aug-15 11:00N 69°30' W 095°18'0 0.0 1012.9 -0.0
2014-Aug-15 10:00N 69°30' W 095°18'0 0.0 1012.8 -0.5
2014-Aug-15 09:00N 69°30' W 095°18'0 0.0 1012.7 -1.3
2014-Aug-15 08:00N 69°30' W 095°18'0 0.0 1012.6 -1.0
2014-Aug-15 07:00N 69°30' W 095°18'0 0.0 1012.3 -0.8
2014-Aug-15 05:00N 69°30' W 095°18'0 0.0 1011.7 0.3
2014-Aug-15 03:00N 69°30' W 095°18'0 0.0 1011.2 2.0
2014-Aug-15 02:00N 69°30' W 095°18'0 0.0 1011.0 3.5
2014-Aug-15 01:00N 69°30' W 095°18'0 0.0 1010.6 7.5
2014-Aug-15 00:00N 69°30' W 095°18'0 0.0 1010.3 8.0
2014-Aug-14 23:00N 69°30' W 095°18'0 0.0 1010.2 6.5
2014-Aug-14 22:00N 69°30' W 095°18'0 0.0 1009.8 7.3
2014-Aug-14 21:00N 69°30' W 095°18'0 0.0 1009.3 6.0
2014-Aug-14 20:00N 69°30' W 095°18'0 0.0 1008.9 5.5
2014-Aug-14 19:00N 69°30' W 095°18'0 0.0 1008.8 4.5
2014-Aug-14 17:00N 69°30' W 095°18'0 0.0 1008.5 4.3
2014-Aug-14 16:00N 69°30' W 095°18'0 0.0 1008.3 4.0
2014-Aug-14 15:00N 69°30' W 095°18'0 0.0 1008.1 3.3
2014-Aug-14 14:00N 69°30' W 095°18'0 0.0 1008.0 3.0
2014-Aug-14 12:00N 69°30' W 095°18'0 0.0 1008.2 1.0
2014-Aug-14 11:00N 69°30' W 095°18'0 0.0 1008.1 -0.0
2014-Aug-14 10:00N 69°30' W 095°18'0 0.0 1008.3 -0.0
2014-Aug-14 09:00N 69°30' W 095°18'0 0.0 1008.6 -0.3
2014-Aug-14 08:00N 69°30' W 095°18'0 0.0 1008.6 -0.0
2014-Aug-14 07:00N 69°30' W 095°18'0 0.0 1008.6 -0.0
2014-Aug-14 06:00N 69°30' W 095°18'0 0.0 1008.8 -0.0
2014-Aug-14 04:00N 69°30' W 095°18'0 0.0 1009.4 0.8
2014-Aug-14 03:00N 69°30' W 095°18'0 0.0 1009.7 0.8
2014-Aug-14 02:00N 69°30' W 095°18'0 0.0 1009.7 1.0
2014-Aug-14 01:00N 69°30' W 095°18'0 0.0 1009.7 1.5
2014-Aug-14 00:00N 69°30' W 095°18'0 0.0 1009.8 1.5
2014-Aug-13 23:00N 69°30' W 095°18'0 0.0 1010.0 4.3
2014-Aug-13 22:00N 69°30' W 095°18'0 0.0 1010.1 3.5
2014-Aug-13 20:00N 69°30' W 095°18'6 3.0 1010.2 3.3
2014-Aug-13 18:00N 69°36' W 095°18'0 0.0 1010.3 0.5
2014-Aug-13 17:00N 69°36' W 095°18'6 6.0 1010.1 0.8
2014-Aug-13 16:00N 69°30' W 095°18'0 0.0 1010.1 0.5
2014-Aug-13 15:00N 69°30' W 095°18'0 0.0 1010.0 1.5
2014-Aug-13 14:00N 69°30' W 095°18'0 0.0 1009.9 0.5
2014-Aug-13 13:00N 69°30' W 095°18'0 0.0 1010.1 0.8
2014-Aug-13 12:00N 69°30' W 095°18'0 0.0 1009.9 -0.3
2014-Aug-13 10:00N 69°30' W 095°18'0 0.0 1009.8 -0.8
2014-Aug-13 09:00N 69°30' W 095°18'0 0.0 1009.5 -0.8
2014-Aug-13 08:00N 69°30' W 095°18'0 0.0 1009.5 -0.8
2014-Aug-12 19:00N 69°30' W 095°18'0 0.0 1010.2 2.8
2014-Aug-12 18:00N 69°30' W 095°18'0 0.0 1010.4 2.8
2014-Aug-12 17:00N 69°30' W 095°18'0 0.0 1010.6 1.5
2014-Aug-12 16:00N 69°30' W 095°18'0 0.0 1010.7 1.0
2014-Aug-12 15:00N 69°30' W 095°18'0 0.0 1011.0 0.3
2014-Aug-12 14:00N 69°30' W 095°18'0 0.0 1011.2 0.3
2014-Aug-12 13:00N 69°30' W 095°18'0 0.0 1011.3 -1.0
2014-Aug-12 12:00N 69°30' W 095°18'0 0.0 1011.4 -0.8
2014-Aug-12 11:00N 69°30' W 095°18'0 0.0 1011.2 -1.0
2014-Aug-12 10:00N 69°30' W 095°18'0 0.0 1011.0 -1.0
2014-Aug-12 06:00N 69°30' W 095°18'0 0.0 1010.2 -1.3
2014-Aug-12 05:00N 69°30' W 095°18'0 0.0 1009.9 -0.8
2014-Aug-12 03:00N 69°30' W 095°18'0 0.0 1009.2 -0.5
2014-Aug-12 02:00N 69°30' W 095°18'0 0.0 1009.0 -0.3
2014-Aug-12 01:00N 69°30' W 095°18'0 0.0 1008.9 -0.0
2014-Aug-12 00:00N 69°30' W 095°18'0 0.0 1008.8 0.3
2014-Aug-11 23:00N 69°30' W 095°18'0 0.0 1008.5 0.8
2014-Aug-11 22:00N 69°30' W 095°18'0 0.0 1008.4 0.8
2014-Aug-11 21:00N 69°30' W 095°18'0 0.0 1008.3 1.3
2014-Aug-11 20:00N 69°30' W 095°18'0 0.0 1008.4 2.8
2014-Aug-11 19:00N 69°30' W 095°18'0 0.0 1008.4 3.8
2014-Aug-11 18:00N 69°30' W 095°18'   1008.6 2.8

Dump ship's entire track history